Time;durP1;ratioP1;P1;durP2;ratioP2;P2;SDS_P1;SDS_P2;PMS_P1;PMS_P2;Temp;Humidity;BMP_temperature;BMP_pressure;BME280_temperature;BME280_humidity;BME280_pressure;Samples;Min_cycle;Max_cycle;Signal;HPM_P1;HPM_P2
2022/01/15 00:00:27;;;;;;;;;;;;;;;;;;1035188;28;795;-60
2022/01/15 00:00:58;;;;;;;;;;;;;;;;;;1035167;28;675;-55
2022/01/15 00:01:28;;;;;;;;;;;;;;;;;;1035245;28;881;-60
2022/01/15 00:01:58;;;;;;;;;;;;;;;;;;1035470;28;835;-59
2022/01/15 00:02:28;;;;;;;;;;;;;;;;;;1035530;28;870;-60
2022/01/15 00:02:59;;;;;;;;;;;;;;;;;;1035418;28;932;-62
2022/01/15 00:03:29;;;;;;;;;;;;;;;;;;1035262;28;988;-62
2022/01/15 00:04:00;;;;;;;;;;;;;;;;;;1035506;28;882;-62
2022/01/15 00:04:30;;;;;;;;;;;;;;;;;;1035377;28;798;-60
2022/01/15 00:05:00;;;;;;;;;;;;;;;;;;1035638;28;910;-61
2022/01/15 00:05:31;;;;;;;;;;;;;;;;;;1035074;28;1109;-61
2022/01/15 00:06:01;;;;;;;;;;;;;;;;;;1035540;28;945;-61
2022/01/15 00:06:32;;;;;;;;;;;;;;;;;;1035352;28;855;-61
2022/01/15 00:07:02;;;;;;;;;;;;;;;;;;1035418;28;827;-61
2022/01/15 00:07:33;;;;;;;;;;;;;;;;;;1035157;28;812;-60
2022/01/15 00:08:04;;;;;;;;;;;;;;;;;;1035530;28;807;-60
2022/01/15 00:08:34;;;;;;;;;;;;;;;;;;1035004;28;929;-56
2022/01/15 00:09:05;;;;;;;;;;;;;;;;;;1035568;28;858;-58
2022/01/15 00:09:36;;;;;;;;;;;;;;;;;;1035085;28;881;-59
2022/01/15 00:10:07;;;;;;;;;;;;;;;;;;1035555;28;882;-57
2022/01/15 00:10:37;;;;;;;;;;;;;;;;;;1035240;28;822;-53
2022/01/15 00:11:08;;;;;;;;;;;;;;;;;;1035513;28;953;-60
2022/01/15 00:11:38;;;;;;;;;;;;;;;;;;1035248;28;1039;-59
2022/01/15 00:12:09;;;;;;;;;;;;;;;;;;1035366;28;673;-57
2022/01/15 00:12:40;;;;;;;;;;;;;;;;;;1035213;28;1902;-59
2022/01/15 00:13:20;;;;;;;;;;;;;;;;;;1035476;28;790;-58
2022/01/15 00:13:57;;;;;;;;;;;;;;;;;;1034894;28;637;-53
2022/01/15 00:14:35;;;;;;;;;;;;;;;;;;1035023;28;1241;-49
2022/01/15 00:15:13;;;;;;;;;;;;;;;;;;1035179;28;953;-55
2022/01/15 00:15:49;;;;;;;;;;;;;;;;;;1035024;28;802;-60
2022/01/15 00:16:32;;;;;;;;;;;;;;;;;;1035285;28;1160;-60
2022/01/15 00:17:06;;;;;;;;;;;;;;;;;;1035526;28;874;-59
2022/01/15 00:17:55;;;;;;;;;;;;;;;;;;1035192;28;909;-54
2022/01/15 00:18:39;;;;;;;;;;;;;;;;;;1035395;28;886;-47
2022/01/15 00:19:12;;;;;;;;;;;;;;;;;;1035521;28;926;-50
2022/01/15 00:19:42;;;;;;;;;;;;;;;;;;1035355;28;981;-53
2022/01/15 00:20:16;;;;;;;;;;;;;;;;;;1035156;28;858;-55
2022/01/15 00:20:46;;;;;;;;;;;;;;;;;;1035450;28;850;-51
2022/01/15 00:21:16;;;;;;;;;;;;;;;;;;1035347;28;933;-50
2022/01/15 00:21:47;;;;;;;;;;;;;;;;;;1035358;28;996;-53
2022/01/15 00:22:19;;;;;;;;;;;;;;;;;;1035359;28;1329;-55
2022/01/15 00:22:50;;;;;;;;;;;;;;;;;;1035315;28;922;-50
2022/01/15 00:23:20;;;;;;;;;;;;;;;;;;1035136;28;866;-46
2022/01/15 00:23:51;;;;;;;;;;;;;;;;;;1035288;28;1617;-46
2022/01/15 00:24:23;;;;;;;;;;;;;;;;;;1035448;28;893;-48
2022/01/15 00:24:53;;;;;;;;;;;;;;;;;;1035373;28;925;-50
2022/01/15 00:25:24;;;;;;;;;;;;;;;;;;1035331;28;913;-52
2022/01/15 00:25:54;;;;;;;;;;;;;;;;;;1031358;28;1377;-52
2022/01/15 00:26:25;;;;;;;;;;;;;;;;;;1031409;28;890;-44
2022/01/15 00:26:56;;;;;;;;;;;;;;;;;;1030944;28;894;-53
2022/01/15 00:27:26;;;;;;;;;;;;;;;;;;1031889;28;878;-49
2022/01/15 00:27:57;;;;;;;;;;;;;;;;;;1031665;28;969;-48
2022/01/15 00:28:28;;;;;;;;;;;;;;;;;;1031757;28;926;-51
2022/01/15 00:28:58;;;;;;;;;;;;;;;;;;1031811;28;870;-50
2022/01/15 00:29:31;;;;;;;;;;;;;;;;;;1031671;28;830;-50
2022/01/15 00:30:03;;;;;;;;;;;;;;;;;;1032237;28;945;-48
2022/01/15 00:30:33;;;;;;;;;;;;;;;;;;1031795;28;855;-47
2022/01/15 00:31:03;;;;;;;;;;;;;;;;;;1032079;28;1139;-50
2022/01/15 00:31:34;;;;;;;;;;;;;;;;;;1034644;28;1183;-48
2022/01/15 00:32:05;;;;;;;;;;;;;;;;;;1033484;28;1166;-48
2022/01/15 00:32:35;;;;;;;;;;;;;;;;;;1033232;28;1972;-48
2022/01/15 00:33:06;;;;;;;;;;;;;;;;;;1034564;28;1181;-51
2022/01/15 00:33:36;;;;;;;;;;;;;;;;;;1034515;28;1135;-48
2022/01/15 00:34:07;;;;;;;;;;;;;;;;;;1033930;28;1202;-48
2022/01/15 00:34:37;;;;;;;;;;;;;;;;;;1033570;28;1241;-48
2022/01/15 00:35:08;;;;;;;;;;;;;;;;;;1034975;28;1186;-48
2022/01/15 00:35:38;;;;;;;;;;;;;;;;;;1034627;28;1183;-48
2022/01/15 00:36:09;;;;;;;;;;;;;;;;;;1034144;28;1170;-49
2022/01/15 00:36:39;;;;;;;;;;;;;;;;;;1033311;28;1091;-47
2022/01/15 00:37:09;;;;;;;;;;;;;;;;;;1033935;28;1182;-48
2022/01/15 00:37:40;;;;;;;;;;;;;;;;;;1034697;28;1194;-52
2022/01/15 00:38:11;;;;;;;;;;;;;;;;;;1034436;28;1088;-48
2022/01/15 00:38:42;;;;;;;;;;;;;;;;;;1033330;28;1019;-49
2022/01/15 00:39:12;;;;;;;;;;;;;;;;;;1033555;28;1159;-50
2022/01/15 00:39:42;;;;;;;;;;;;;;;;;;1034604;28;1143;-48
2022/01/15 00:40:14;;;;;;;;;;;;;;;;;;1034627;28;1178;-50
2022/01/15 00:40:44;;;;;;;;;;;;;;;;;;1033603;28;1186;-48
2022/01/15 00:41:16;;;;;;;;;;;;;;;;;;1033262;28;1194;-49
2022/01/15 00:41:47;;;;;;;;;;;;;;;;;;1034536;28;1162;-49
2022/01/15 00:42:18;;;;;;;;;;;;;;;;;;1034541;28;1135;-48
2022/01/15 00:42:48;;;;;;;;;;;;;;;;;;1034076;28;1107;-49
2022/01/15 00:43:19;;;;;;;;;;;;;;;;;;1033354;28;1162;-49
2022/01/15 00:43:49;;;;;;;;;;;;;;;;;;1034137;28;1229;-51
2022/01/15 00:44:20;;;;;;;;;;;;;;;;;;1034860;28;1481;-49
2022/01/15 00:44:51;;;;;;;;;;;;;;;;;;1033996;28;1123;-51
2022/01/15 00:45:22;;;;;;;;;;;;;;;;;;1033134;28;1174;-48
2022/01/15 00:45:55;;;;;;;;;;;;;;;;;;1033103;28;1162;-48
2022/01/15 00:46:26;;;;;;;;;;;;;;;;;;1034401;28;1126;-49
2022/01/15 00:46:56;;;;;;;;;;;;;;;;;;1034842;28;1218;-49
2022/01/15 00:47:31;;;;;;;;;;;;;;;;;;1033907;28;1154;-52
2022/01/15 00:48:02;;;;;;;;;;;;;;;;;;1033603;28;1137;-52
2022/01/15 00:48:32;;;;;;;;;;;;;;;;;;1033127;28;1142;-48
2022/01/15 00:49:03;;;;;;;;;;;;;;;;;;1033122;28;1119;-48
2022/01/15 00:49:34;;;;;;;;;;;;;;;;;;1032804;28;1201;-51
2022/01/15 00:50:06;;;;;;;;;;;;;;;;;;1034308;28;1229;-46
2022/01/15 00:50:36;;;;;;;;;;;;;;;;;;1034374;28;1151;-48
2022/01/15 00:51:07;;;;;;;;;;;;;;;;;;1034367;28;1146;-46
2022/01/15 00:51:38;;;;;;;;;;;;;;;;;;1033272;28;1090;-47
2022/01/15 00:52:08;;;;;;;;;;;;;;;;;;1032211;28;854;-48
2022/01/15 00:52:39;;;;;;;;;;;;;;;;;;1031890;28;1984;-49
2022/01/15 00:53:09;;;;;;;;;;;;;;;;;;1032098;28;815;-46
2022/01/15 00:53:40;;;;;;;;;;;;;;;;;;1031576;28;933;-46
2022/01/15 00:54:10;;;;;;;;;;;;;;;;;;1031681;28;795;-45
2022/01/15 00:54:41;;;;;;;;;;;;;;;;;;1031773;28;862;-49
2022/01/15 00:55:12;;;;;;;;;;;;;;;;;;1031794;28;882;-47
2022/01/15 00:55:43;;;;;;;;;;;;;;;;;;1031865;28;882;-46
2022/01/15 00:56:14;;;;;;;;;;;;;;;;;;1031979;28;863;-46
2022/01/15 00:56:45;;;;;;;;;;;;;;;;;;1032060;28;756;-47
2022/01/15 00:57:15;;;;;;;;;;;;;;;;;;1031999;28;828;-51
2022/01/15 00:57:46;;;;;;;;;;;;;;;;;;1031997;28;977;-49
2022/01/15 00:58:16;;;;;;;;;;;;;;;;;;1031821;28;923;-47
2022/01/15 00:58:46;;;;;;;;;;;;;;;;;;1032009;28;886;-45
2022/01/15 00:59:18;;;;;;;;;;;;;;;;;;1032001;28;929;-48
2022/01/15 00:59:48;;;;;;;;;;;;;;;;;;1031976;28;918;-46
2022/01/15 01:00:20;;;;;;;;;;;;;;;;;;1031800;28;879;-46
2022/01/15 01:00:51;;;;;;;;;;;;;;;;;;1031875;28;922;-45
2022/01/15 01:01:21;;;;;;;;;;;;;;;;;;1031965;28;922;-46
2022/01/15 01:01:51;;;;;;;;;;;;;;;;;;1032064;28;906;-46
2022/01/15 01:02:22;;;;;;;;;;;;;;;;;;1031931;28;856;-46
2022/01/15 01:02:53;;;;;;;;;;;;;;;;;;1032035;28;835;-45
2022/01/15 01:03:23;;;;;;;;;;;;;;;;;;1031905;28;922;-47
2022/01/15 01:03:53;;;;;;;;;;;;;;;;;;1031872;28;927;-47
2022/01/15 01:04:24;;;;;;;;;;;;;;;;;;1032020;28;890;-46
2022/01/15 01:04:54;;;;;;;;;;;;;;;;;;1031925;28;835;-46
2022/01/15 01:05:24;;;;;;;;;;;;;;;;;;1032029;28;819;-46
2022/01/15 01:05:54;;;;;;;;;;;;;;;;;;1031955;28;867;-47
2022/01/15 01:06:25;;;;;;;;;;;;;;;;;;1031868;28;831;-46
2022/01/15 01:06:55;;;;;;;;;;;;;;;;;;1035198;28;1233;-48
2022/01/15 01:07:26;;;;;;;;;;;;;;;;;;1029575;28;1260;-46
2022/01/15 01:07:57;;;;;;;;;;;;;;;;;;1031831;28;989;-46
2022/01/15 01:08:27;;;;;;;;;;;;;;;;;;1031186;28;942;-46
2022/01/15 01:08:58;;;;;;;;;;;;;;;;;;1031923;28;815;-48
2022/01/15 01:09:42;;;;;;;;;;;;;;;;;;1028485;28;847;-48
2022/01/15 01:10:48;;;;;;;;;;;;;;;;;;1027721;28;906;-47
2022/01/15 01:11:29;;;;;;;;;;;;;;;;;;1027788;28;1110;-47
2022/01/15 01:12:19;;;;;;;;;;;;;;;;;;1029803;28;976;-50
2022/01/15 01:20:08;;;;;;;;;;;;;;;;;;1031967;28;914;-47
2022/01/15 01:22:51;;;;;;;;;;;;;;;;;;1031987;28;894;-48
2022/01/15 01:23:22;;;;;;;;;;;;;;;;;;1031852;28;886;-48
2022/01/15 01:23:52;;;;;;;;;;;;;;;;;;1031904;28;1073;-47
2022/01/15 01:24:23;;;;;;;;;;;;;;;;;;1031992;28;890;-51
2022/01/15 01:24:53;;;;;;;;;;;;;;;;;;1031707;28;847;-48
2022/01/15 01:25:29;;;;;;;;;;;;;;;;;;1031924;28;839;-48
2022/01/15 01:26:22;;;;;;;;;;;;;;;;;;1031790;28;898;-46
2022/01/15 01:26:57;;;;;;;;;;;;;;;;;;1029489;28;903;-50
2022/01/15 01:27:41;;;;;;;;;;;;;;;;;;1027782;28;898;-47
2022/01/15 01:28:23;;;;;;;;;;;;;;;;;;1027877;28;942;-49
2022/01/15 01:29:05;;;;;;;;;;;;;;;;;;1027654;28;886;-48
2022/01/15 01:30:10;;;;;;;;;;;;;;;;;;1027740;28;922;-46
2022/01/15 01:30:33;;;;;;;;;;;;;;;;;;1027547;28;1312;-48
2022/01/15 01:31:15;;;;;;;;;;;;;;;;;;1027933;28;895;-49
2022/01/15 01:32:34;;;;;;;;;;;;;;;;;;1027890;28;934;-47
2022/01/15 01:32:48;;;;;;;;;;;;;;;;;;1026521;28;1906;-48
2022/01/15 01:33:56;;;;;;;;;;;;;;;;;;1027617;28;835;-46
2022/01/15 01:34:29;;;;;;;;;;;;;;;;;;1027983;28;780;-49
2022/01/15 01:35:06;;;;;;;;;;;;;;;;;;1027836;28;847;-47
2022/01/15 01:35:42;;;;;;;;;;;;;;;;;;1030392;28;874;-47
2022/01/15 01:36:20;;;;;;;;;;;;;;;;;;1034948;28;978;-47
2022/01/15 01:37:33;;;;;;;;;;;;;;;;;;1035658;28;930;-49
2022/01/15 01:38:24;;;;;;;;;;;;;;;;;;1035674;28;982;-48
2022/01/15 01:38:58;;;;;;;;;;;;;;;;;;1035233;28;941;-48
2022/01/15 01:39:39;;;;;;;;;;;;;;;;;;1035714;28;791;-49
2022/01/15 01:40:25;;;;;;;;;;;;;;;;;;1035879;28;831;-48
2022/01/15 01:40:58;;;;;;;;;;;;;;;;;;1035806;28;838;-48
2022/01/15 01:41:35;;;;;;;;;;;;;;;;;;1035867;28;791;-49
2022/01/15 01:42:25;;;;;;;;;;;;;;;;;;1035762;28;854;-49
2022/01/15 01:43:06;;;;;;;;;;;;;;;;;;1035425;28;863;-46
2022/01/15 01:44:08;;;;;;;;;;;;;;;;;;1035484;28;853;-48
2022/01/15 01:44:41;;;;;;;;;;;;;;;;;;1035629;28;913;-48
2022/01/15 01:45:14;;;;;;;;;;;;;;;;;;1035848;28;835;-48
2022/01/15 01:45:49;;;;;;;;;;;;;;;;;;1035829;28;870;-46
2022/01/15 01:47:02;;;;;;;;;;;;;;;;;;1035843;28;887;-46
2022/01/15 01:48:09;;;;;;;;;;;;;;;;;;1035845;28;863;-46
2022/01/15 01:48:40;;;;;;;;;;;;;;;;;;1035251;28;1106;-47
2022/01/15 01:49:12;;;;;;;;;;;;;;;;;;1031763;28;899;-45
2022/01/15 01:49:43;;;;;;;;;;;;;;;;;;1031722;28;1129;-47
2022/01/15 01:50:18;;;;;;;;;;;;;;;;;;1031537;28;867;-49
2022/01/15 01:50:48;;;;;;;;;;;;;;;;;;1031909;28;898;-46
2022/01/15 01:51:26;;;;;;;;;;;;;;;;;;1031600;28;846;-46
2022/01/15 01:51:57;;;;;;;;;;;;;;;;;;1029051;28;1082;-50
2022/01/15 01:52:28;;;;;;;;;;;;;;;;;;1027579;28;1915;-46
2022/01/15 01:52:58;;;;;;;;;;;;;;;;;;1027853;28;1000;-46
2022/01/15 01:53:29;;;;;;;;;;;;;;;;;;1027706;28;966;-47
2022/01/15 01:54:00;;;;;;;;;;;;;;;;;;1027858;28;870;-47
2022/01/15 01:54:31;;;;;;;;;;;;;;;;;;1027781;28;768;-46
2022/01/15 01:55:02;;;;;;;;;;;;;;;;;;1027765;28;953;-46
2022/01/15 01:55:32;;;;;;;;;;;;;;;;;;1027683;28;835;-46
2022/01/15 01:56:06;;;;;;;;;;;;;;;;;;1027871;28;875;-48
2022/01/15 01:56:37;;;;;;;;;;;;;;;;;;1027667;28;862;-47
2022/01/15 01:57:07;;;;;;;;;;;;;;;;;;1027827;28;799;-47
2022/01/15 01:57:38;;;;;;;;;;;;;;;;;;1027535;28;886;-47
2022/01/15 01:58:08;;;;;;;;;;;;;;;;;;1027886;28;897;-46
2022/01/15 01:58:38;;;;;;;;;;;;;;;;;;1027778;28;807;-46
2022/01/15 01:59:09;;;;;;;;;;;;;;;;;;1027408;28;1064;-45
2022/01/15 01:59:39;;;;;;;;;;;;;;;;;;1027432;28;949;-47
2022/01/15 02:00:11;;;;;;;;;;;;;;;;;;1027328;28;962;-46
2022/01/15 02:00:47;;;;;;;;;;;;;;;;;;1027719;28;735;-46
2022/01/15 02:01:18;;;;;;;;;;;;;;;;;;1027665;28;1054;-46
2022/01/15 02:01:48;;;;;;;;;;;;;;;;;;1027723;28;920;-47
2022/01/15 02:02:18;;;;;;;;;;;;;;;;;;1027697;28;787;-47
2022/01/15 02:02:50;;;;;;;;;;;;;;;;;;1027761;28;1035;-46
2022/01/15 02:03:20;;;;;;;;;;;;;;;;;;1027566;28;850;-46
2022/01/15 02:03:51;;;;;;;;;;;;;;;;;;1027864;28;855;-46
2022/01/15 02:04:22;;;;;;;;;;;;;;;;;;1027611;28;787;-51
2022/01/15 02:04:56;;;;;;;;;;;;;;;;;;1027794;28;978;-48
2022/01/15 02:05:27;;;;;;;;;;;;;;;;;;1027543;28;962;-46
2022/01/15 02:05:57;;;;;;;;;;;;;;;;;;1027790;28;850;-46
2022/01/15 02:06:28;;;;;;;;;;;;;;;;;;1027775;28;1016;-45
2022/01/15 02:06:59;;;;;;;;;;;;;;;;;;1027688;28;889;-46
2022/01/15 02:07:30;;;;;;;;;;;;;;;;;;1027567;28;913;-50
2022/01/15 02:08:00;;;;;;;;;;;;;;;;;;1027758;28;803;-47
2022/01/15 02:08:35;;;;;;;;;;;;;;;;;;1027759;28;898;-46
2022/01/15 02:09:06;;;;;;;;;;;;;;;;;;1027831;28;823;-48
2022/01/15 02:09:38;;;;;;;;;;;;;;;;;;1027499;28;1011;-49
2022/01/15 02:10:09;;;;;;;;;;;;;;;;;;1027899;28;894;-48
2022/01/15 02:10:40;;;;;;;;;;;;;;;;;;1027616;28;895;-48
2022/01/15 02:11:11;;;;;;;;;;;;;;;;;;1027681;28;969;-47
2022/01/15 02:11:42;;;;;;;;;;;;;;;;;;1027657;28;795;-47
2022/01/15 02:12:13;;;;;;;;;;;;;;;;;;1027638;28;949;-47
2022/01/15 02:12:44;;;;;;;;;;;;;;;;;;1027683;28;1910;-47
2022/01/15 02:13:14;;;;;;;;;;;;;;;;;;1027665;28;962;-46
2022/01/15 02:13:45;;;;;;;;;;;;;;;;;;1027618;28;933;-48
2022/01/15 02:14:26;;;;;;;;;;;;;;;;;;1027610;28;1249;-47
2022/01/15 02:14:56;;;;;;;;;;;;;;;;;;1027625;28;847;-46
2022/01/15 02:15:27;;;;;;;;;;;;;;;;;;1027795;28;890;-47
2022/01/15 02:15:58;;;;;;;;;;;;;;;;;;1027657;28;800;-47
2022/01/15 02:16:29;;;;;;;;;;;;;;;;;;1027567;28;843;-47
2022/01/15 02:16:59;;;;;;;;;;;;;;;;;;1027805;28;812;-47
2022/01/15 02:17:29;;;;;;;;;;;;;;;;;;1027567;28;878;-48
2022/01/15 02:18:00;;;;;;;;;;;;;;;;;;1027660;28;775;-48
2022/01/15 02:18:30;;;;;;;;;;;;;;;;;;1027770;28;886;-47
2022/01/15 02:19:00;;;;;;;;;;;;;;;;;;1027569;28;977;-48
2022/01/15 02:19:32;;;;;;;;;;;;;;;;;;1027633;28;922;-48
2022/01/15 02:20:35;;;;;;;;;;;;;;;;;;1027494;28;855;-48
2022/01/15 02:23:58;;;;;;;;;;;;;;;;;;1027609;28;795;-48
2022/01/15 02:24:29;;;;;;;;;;;;;;;;;;1027727;28;867;-47
2022/01/15 02:24:59;;;;;;;;;;;;;;;;;;1027635;28;1124;-48
2022/01/15 02:25:42;;;;;;;;;;;;;;;;;;1027398;28;1806;-49
2022/01/15 02:26:15;;;;;;;;;;;;;;;;;;1027670;28;922;-48
2022/01/15 02:26:46;;;;;;;;;;;;;;;;;;1027585;28;894;-49
2022/01/15 02:27:16;;;;;;;;;;;;;;;;;;1027717;28;969;-49
2022/01/15 02:27:46;;;;;;;;;;;;;;;;;;1023380;29;890;-49
2022/01/15 02:28:18;;;;;;;;;;;;;;;;;;1023113;29;795;-46
2022/01/15 02:28:56;;;;;;;;;;;;;;;;;;1023547;29;941;-48
2022/01/15 02:29:26;;;;;;;;;;;;;;;;;;1024453;28;846;-46
2022/01/15 02:29:56;;;;;;;;;;;;;;;;;;1027649;28;800;-47
2022/01/15 02:30:27;;;;;;;;;;;;;;;;;;1027453;28;866;-50
2022/01/15 02:30:58;;;;;;;;;;;;;;;;;;1027584;28;950;-48
2022/01/15 02:31:30;;;;;;;;;;;;;;;;;;1027603;28;852;-46
2022/01/15 02:32:00;;;;;;;;;;;;;;;;;;1027616;28;933;-49
2022/01/15 02:32:31;;;;;;;;;;;;;;;;;;1027582;28;1906;-47
2022/01/15 02:33:02;;;;;;;;;;;;;;;;;;1027685;28;870;-48
2022/01/15 02:33:32;;;;;;;;;;;;;;;;;;1027563;28;796;-47
2022/01/15 02:34:04;;;;;;;;;;;;;;;;;;1027636;28;923;-51
2022/01/15 02:34:34;;;;;;;;;;;;;;;;;;1027445;28;942;-48
2022/01/15 02:35:04;;;;;;;;;;;;;;;;;;1027622;28;957;-48
2022/01/15 02:35:35;;;;;;;;;;;;;;;;;;1027485;28;1193;-49
2022/01/15 02:36:07;;;;;;;;;;;;;;;;;;1027612;28;859;-47
2022/01/15 02:36:37;;;;;;;;;;;;;;;;;;1027467;28;989;-47
2022/01/15 02:37:07;;;;;;;;;;;;;;;;;;1027728;28;871;-48
2022/01/15 02:37:38;;;;;;;;;;;;;;;;;;1027408;28;960;-47
2022/01/15 02:38:08;;;;;;;;;;;;;;;;;;1027672;28;902;-49
2022/01/15 02:38:39;;;;;;;;;;;;;;;;;;1027502;28;846;-47
2022/01/15 02:39:10;;;;;;;;;;;;;;;;;;1027606;28;961;-48
2022/01/15 02:39:40;;;;;;;;;;;;;;;;;;1023267;29;933;-47
2022/01/15 02:40:11;;;;;;;;;;;;;;;;;;1023078;28;922;-46
2022/01/15 02:40:42;;;;;;;;;;;;;;;;;;1023331;29;859;-47
2022/01/15 02:41:13;;;;;;;;;;;;;;;;;;1023450;28;863;-46
2022/01/15 02:41:43;;;;;;;;;;;;;;;;;;1027497;28;930;-47
2022/01/15 02:42:13;;;;;;;;;;;;;;;;;;1027572;28;914;-47
2022/01/15 02:42:44;;;;;;;;;;;;;;;;;;1027517;28;944;-46
2022/01/15 02:43:18;;;;;;;;;;;;;;;;;;1027460;28;946;-47
2022/01/15 02:43:49;;;;;;;;;;;;;;;;;;1027610;28;1032;-48
2022/01/15 02:44:20;;;;;;;;;;;;;;;;;;1023256;29;875;-46
2022/01/15 02:44:58;;;;;;;;;;;;;;;;;;1023358;28;863;-49
2022/01/15 02:45:29;;;;;;;;;;;;;;;;;;1023114;29;819;-47
2022/01/15 02:46:35;;;;;;;;;;;;;;;;;;1024820;28;886;-47
2022/01/15 02:48:17;;;;;;;;;;;;;;;;;;1027512;28;954;-50
2022/01/15 02:48:48;;;;;;;;;;;;;;;;;;1029254;28;1162;-48
2022/01/15 02:49:19;;;;;;;;;;;;;;;;;;1031334;28;952;-47
2022/01/15 02:49:49;;;;;;;;;;;;;;;;;;1031570;28;1004;-51
2022/01/15 02:50:20;;;;;;;;;;;;;;;;;;1031407;28;914;-48
2022/01/15 02:50:51;;;;;;;;;;;;;;;;;;1031618;28;835;-47
2022/01/15 02:51:23;;;;;;;;;;;;;;;;;;1031472;28;906;-48
2022/01/15 02:51:53;;;;;;;;;;;;;;;;;;1031439;28;1060;-49
2022/01/15 02:52:24;;;;;;;;;;;;;;;;;;1029149;28;1973;-49
2022/01/15 02:52:54;;;;;;;;;;;;;;;;;;1027625;28;787;-48
2022/01/15 02:53:24;;;;;;;;;;;;;;;;;;1027477;28;843;-48
2022/01/15 02:53:55;;;;;;;;;;;;;;;;;;1027552;28;921;-50
2022/01/15 02:54:25;;;;;;;;;;;;;;;;;;1027565;28;784;-51
2022/01/15 02:54:56;;;;;;;;;;;;;;;;;;1027493;28;993;-52
2022/01/15 02:55:26;;;;;;;;;;;;;;;;;;1027572;28;938;-51
2022/01/15 02:55:56;;;;;;;;;;;;;;;;;;1027399;28;799;-47
2022/01/15 02:56:28;;;;;;;;;;;;;;;;;;1027666;28;847;-47
2022/01/15 02:57:04;;;;;;;;;;;;;;;;;;1027526;28;1351;-50
2022/01/15 02:57:35;;;;;;;;;;;;;;;;;;1027265;28;903;-50
2022/01/15 02:58:05;;;;;;;;;;;;;;;;;;1027653;28;949;-49
2022/01/15 02:58:36;;;;;;;;;;;;;;;;;;1027348;28;965;-47
2022/01/15 02:59:07;;;;;;;;;;;;;;;;;;1027735;28;807;-52
2022/01/15 02:59:38;;;;;;;;;;;;;;;;;;1027291;28;866;-47
2022/01/15 03:00:08;;;;;;;;;;;;;;;;;;1027577;28;807;-48
2022/01/15 03:00:39;;;;;;;;;;;;;;;;;;1027325;28;929;-50
2022/01/15 03:01:09;;;;;;;;;;;;;;;;;;1027552;28;989;-51
2022/01/15 03:01:39;;;;;;;;;;;;;;;;;;1027415;28;989;-48
2022/01/15 03:02:10;;;;;;;;;;;;;;;;;;1027524;28;926;-50
2022/01/15 03:02:40;;;;;;;;;;;;;;;;;;1027372;28;1004;-47
2022/01/15 03:03:10;;;;;;;;;;;;;;;;;;1027675;28;780;-48
2022/01/15 03:03:41;;;;;;;;;;;;;;;;;;1027381;28;914;-47
2022/01/15 03:04:11;;;;;;;;;;;;;;;;;;1027566;28;953;-48
2022/01/15 03:04:41;;;;;;;;;;;;;;;;;;1027457;28;870;-47
2022/01/15 03:05:12;;;;;;;;;;;;;;;;;;1027464;28;942;-46
2022/01/15 03:05:42;;;;;;;;;;;;;;;;;;1027392;28;874;-46
2022/01/15 03:06:15;;;;;;;;;;;;;;;;;;1027541;28;871;-52
2022/01/15 03:06:45;;;;;;;;;;;;;;;;;;1027570;28;803;-48
2022/01/15 03:07:16;;;;;;;;;;;;;;;;;;1027562;28;923;-46
2022/01/15 03:07:46;;;;;;;;;;;;;;;;;;1027370;28;966;-47
2022/01/15 03:08:17;;;;;;;;;;;;;;;;;;1027530;28;855;-46
2022/01/15 03:08:48;;;;;;;;;;;;;;;;;;1027546;28;927;-49
2022/01/15 03:09:18;;;;;;;;;;;;;;;;;;1027299;28;993;-47
2022/01/15 03:09:48;;;;;;;;;;;;;;;;;;1027598;28;882;-46
2022/01/15 03:10:19;;;;;;;;;;;;;;;;;;1027300;28;930;-46
2022/01/15 03:10:49;;;;;;;;;;;;;;;;;;1027460;28;954;-47
2022/01/15 03:11:20;;;;;;;;;;;;;;;;;;1027469;28;917;-49
2022/01/15 03:11:50;;;;;;;;;;;;;;;;;;1027494;28;827;-48
2022/01/15 03:12:21;;;;;;;;;;;;;;;;;;1027382;28;1927;-48
2022/01/15 03:12:54;;;;;;;;;;;;;;;;;;1027527;28;958;-46
2022/01/15 03:13:24;;;;;;;;;;;;;;;;;;1027531;28;946;-46
2022/01/15 03:13:55;;;;;;;;;;;;;;;;;;1027434;28;871;-46
2022/01/15 03:14:30;;;;;;;;;;;;;;;;;;1027345;28;1313;-46
2022/01/15 03:15:02;;;;;;;;;;;;;;;;;;1027418;28;1017;-46
2022/01/15 03:15:33;;;;;;;;;;;;;;;;;;1027394;28;768;-45
2022/01/15 03:16:03;;;;;;;;;;;;;;;;;;1027487;28;863;-48
2022/01/15 03:16:33;;;;;;;;;;;;;;;;;;1027397;28;969;-47
2022/01/15 03:17:04;;;;;;;;;;;;;;;;;;1027452;28;1133;-46
2022/01/15 03:17:34;;;;;;;;;;;;;;;;;;1027389;28;930;-45
2022/01/15 03:18:05;;;;;;;;;;;;;;;;;;1027518;28;934;-45
2022/01/15 03:18:35;;;;;;;;;;;;;;;;;;1027322;28;876;-48
2022/01/15 03:19:05;;;;;;;;;;;;;;;;;;1027561;28;1689;-46
2022/01/15 03:19:36;;;;;;;;;;;;;;;;;;1027275;28;887;-48
2022/01/15 03:20:06;;;;;;;;;;;;;;;;;;1027459;28;1691;-46
2022/01/15 03:20:37;;;;;;;;;;;;;;;;;;1027279;28;1217;-46
2022/01/15 03:21:07;;;;;;;;;;;;;;;;;;1027388;28;1054;-48
2022/01/15 03:21:37;;;;;;;;;;;;;;;;;;1027333;28;1581;-46
2022/01/15 03:22:08;;;;;;;;;;;;;;;;;;1027503;28;954;-46
2022/01/15 03:22:39;;;;;;;;;;;;;;;;;;1027330;28;997;-47
2022/01/15 03:23:09;;;;;;;;;;;;;;;;;;1027538;28;807;-47
2022/01/15 03:23:40;;;;;;;;;;;;;;;;;;1026786;28;1752;-47
2022/01/15 03:24:10;;;;;;;;;;;;;;;;;;1027246;28;790;-49
2022/01/15 03:24:40;;;;;;;;;;;;;;;;;;1027130;28;953;-47
2022/01/15 03:25:11;;;;;;;;;;;;;;;;;;1026992;28;1669;-47
2022/01/15 03:25:42;;;;;;;;;;;;;;;;;;1027168;28;1068;-47
2022/01/15 03:26:13;;;;;;;;;;;;;;;;;;1027507;28;808;-46
2022/01/15 03:26:43;;;;;;;;;;;;;;;;;;1027567;28;894;-48
2022/01/15 03:27:14;;;;;;;;;;;;;;;;;;1027416;28;839;-46
2022/01/15 03:27:44;;;;;;;;;;;;;;;;;;1027295;28;1175;-47
2022/01/15 03:28:15;;;;;;;;;;;;;;;;;;1027494;28;927;-46
2022/01/15 03:28:45;;;;;;;;;;;;;;;;;;1027441;28;812;-47
2022/01/15 03:29:15;;;;;;;;;;;;;;;;;;1027352;28;910;-48
2022/01/15 03:29:46;;;;;;;;;;;;;;;;;;1023114;28;793;-48
2022/01/15 03:30:17;;;;;;;;;;;;;;;;;;1022955;29;959;-47
2022/01/15 03:30:47;;;;;;;;;;;;;;;;;;1023182;29;997;-48
2022/01/15 03:31:17;;;;;;;;;;;;;;;;;;1023094;28;916;-46
2022/01/15 03:31:48;;;;;;;;;;;;;;;;;;1027363;28;922;-47
2022/01/15 03:32:18;;;;;;;;;;;;;;;;;;1027361;28;1906;-46
2022/01/15 03:32:49;;;;;;;;;;;;;;;;;;1027488;28;834;-47
2022/01/15 03:33:19;;;;;;;;;;;;;;;;;;1027290;28;800;-47
2022/01/15 03:33:49;;;;;;;;;;;;;;;;;;1027484;28;820;-47
2022/01/15 03:34:20;;;;;;;;;;;;;;;;;;1027280;28;810;-45
2022/01/15 03:34:50;;;;;;;;;;;;;;;;;;1027434;28;918;-46
2022/01/15 03:35:21;;;;;;;;;;;;;;;;;;1027374;28;945;-46
2022/01/15 03:35:51;;;;;;;;;;;;;;;;;;1027437;28;938;-46
2022/01/15 03:36:22;;;;;;;;;;;;;;;;;;1027507;28;875;-48
2022/01/15 03:36:52;;;;;;;;;;;;;;;;;;1027452;28;957;-47
2022/01/15 03:37:22;;;;;;;;;;;;;;;;;;1027375;28;795;-47
2022/01/15 03:37:53;;;;;;;;;;;;;;;;;;1027327;28;973;-48
2022/01/15 03:38:23;;;;;;;;;;;;;;;;;;1027407;28;839;-49
2022/01/15 03:38:53;;;;;;;;;;;;;;;;;;1027408;28;800;-46
2022/01/15 03:39:23;;;;;;;;;;;;;;;;;;1027422;28;910;-47
2022/01/15 03:39:54;;;;;;;;;;;;;;;;;;1027262;28;879;-46
2022/01/15 03:40:24;;;;;;;;;;;;;;;;;;1027365;28;894;-49
2022/01/15 03:40:55;;;;;;;;;;;;;;;;;;1027350;28;926;-47
2022/01/15 03:41:25;;;;;;;;;;;;;;;;;;1027481;28;878;-46
2022/01/15 03:41:55;;;;;;;;;;;;;;;;;;1027313;28;756;-47
2022/01/15 03:42:26;;;;;;;;;;;;;;;;;;1027447;28;823;-47
2022/01/15 03:42:56;;;;;;;;;;;;;;;;;;1027440;28;816;-46
2022/01/15 03:43:27;;;;;;;;;;;;;;;;;;1027322;28;875;-46
2022/01/15 03:43:57;;;;;;;;;;;;;;;;;;1027292;28;914;-46
2022/01/15 03:44:27;;;;;;;;;;;;;;;;;;1027522;28;886;-46
2022/01/15 03:44:58;;;;;;;;;;;;;;;;;;1027280;28;859;-46
2022/01/15 03:45:28;;;;;;;;;;;;;;;;;;1027474;28;910;-46
2022/01/15 03:45:58;;;;;;;;;;;;;;;;;;1027252;28;926;-46
2022/01/15 03:46:30;;;;;;;;;;;;;;;;;;1027431;28;878;-49
2022/01/15 03:47:00;;;;;;;;;;;;;;;;;;1027415;28;989;-47
2022/01/15 03:47:30;;;;;;;;;;;;;;;;;;1027328;28;812;-48
2022/01/15 03:48:01;;;;;;;;;;;;;;;;;;1027297;28;843;-45
2022/01/15 03:48:31;;;;;;;;;;;;;;;;;;1027468;28;950;-47
2022/01/15 03:49:02;;;;;;;;;;;;;;;;;;1030694;28;1131;-48
2022/01/15 03:49:32;;;;;;;;;;;;;;;;;;1031431;28;827;-46
2022/01/15 03:50:02;;;;;;;;;;;;;;;;;;1031333;28;863;-48
2022/01/15 03:50:33;;;;;;;;;;;;;;;;;;1031156;28;819;-47
2022/01/15 03:51:03;;;;;;;;;;;;;;;;;;1031558;28;866;-49
2022/01/15 03:51:34;;;;;;;;;;;;;;;;;;1031274;28;800;-49
2022/01/15 03:52:05;;;;;;;;;;;;;;;;;;1031471;28;815;-48
2022/01/15 03:52:35;;;;;;;;;;;;;;;;;;1031160;28;1972;-48
2022/01/15 03:53:06;;;;;;;;;;;;;;;;;;1031464;28;946;-46
2022/01/15 03:53:36;;;;;;;;;;;;;;;;;;1031294;28;914;-46
2022/01/15 03:54:07;;;;;;;;;;;;;;;;;;1031313;28;930;-47
2022/01/15 03:54:37;;;;;;;;;;;;;;;;;;1031380;28;934;-46
2022/01/15 03:55:08;;;;;;;;;;;;;;;;;;1031306;28;961;-47
2022/01/15 03:55:39;;;;;;;;;;;;;;;;;;1031241;28;845;-46
2022/01/15 03:56:09;;;;;;;;;;;;;;;;;;1031407;28;871;-47
2022/01/15 03:56:39;;;;;;;;;;;;;;;;;;1031233;28;811;-48
2022/01/15 03:57:10;;;;;;;;;;;;;;;;;;1031474;28;855;-50
2022/01/15 03:57:40;;;;;;;;;;;;;;;;;;1031413;28;878;-48
2022/01/15 03:58:11;;;;;;;;;;;;;;;;;;1031281;28;851;-48
2022/01/15 03:58:41;;;;;;;;;;;;;;;;;;1031378;28;1004;-46
2022/01/15 03:59:11;;;;;;;;;;;;;;;;;;1031404;28;834;-48
2022/01/15 03:59:42;;;;;;;;;;;;;;;;;;1031317;28;811;-47
2022/01/15 04:00:17;;;;;;;;;;;;;;;;;;1031182;28;902;-46
2022/01/15 04:00:49;;;;;;;;;;;;;;;;;;1031343;28;822;-47
2022/01/15 04:01:19;;;;;;;;;;;;;;;;;;1031253;28;901;-46
2022/01/15 04:01:50;;;;;;;;;;;;;;;;;;1027042;28;677;-47
2022/01/15 04:02:20;;;;;;;;;;;;;;;;;;1027417;28;906;-49